Time;durP1;ratioP1;P1;durP2;ratioP2;P2;SDS_P1;SDS_P2;PMS_P1;PMS_P2;Temp;Humidity;BMP_temperature;BMP_pressure;BME280_temperature;BME280_humidity;BME280_pressure;Samples;Min_cycle;Max_cycle;Signal;HPM_P1;HPM_P2
2022/03/06 00:00:07;;;;;;;21.35;13.05;;;;;;;;;;5055716;28;20405;-64
2022/03/06 00:02:33;;;;;;;20.30;12.57;;;;;;;;;;5036583;28;20056;-63
2022/03/06 00:04:59;;;;;;;20.55;12.93;;;;;;;;;;5054520;28;20064;-62
2022/03/06 00:07:25;;;;;;;18.60;13.27;;;;;;;;;;5053333;28;20037;-63
2022/03/06 00:09:51;;;;;;;20.27;13.85;;;;;;;;;;5044695;28;20052;-62
2022/03/06 00:12:17;;;;;;;17.65;12.07;;;;;;;;;;5051726;28;20068;-61
2022/03/06 00:14:44;;;;;;;20.88;13.65;;;;;;;;;;5054848;28;20453;-63
2022/03/06 00:17:10;;;;;;;20.83;14.43;;;;;;;;;;5054117;28;20056;-63
2022/03/06 00:19:36;;;;;;;18.35;12.80;;;;;;;;;;5055058;28;20041;-63
2022/03/06 00:22:03;;;;;;;18.55;13.60;;;;;;;;;;5049090;28;20049;-63
2022/03/06 00:24:29;;;;;;;21.35;14.95;;;;;;;;;;5043307;28;20096;-62
2022/03/06 00:26:55;;;;;;;19.75;14.25;;;;;;;;;;5054698;28;20084;-64
2022/03/06 00:29:22;;;;;;;22.20;14.10;;;;;;;;;;5054512;28;20087;-64
2022/03/06 00:31:48;;;;;;;23.08;14.93;;;;;;;;;;5053725;28;20087;-63
2022/03/06 00:34:14;;;;;;;24.25;14.77;;;;;;;;;;5054704;28;20037;-63
2022/03/06 00:36:40;;;;;;;20.92;14.73;;;;;;;;;;5053726;28;20394;-64
2022/03/06 00:39:06;;;;;;;21.40;14.75;;;;;;;;;;5035544;28;20045;-63
2022/03/06 00:41:32;;;;;;;22.77;14.73;;;;;;;;;;5054137;28;20070;-63
2022/03/06 00:43:58;;;;;;;23.35;15.60;;;;;;;;;;5053443;28;20045;-63
2022/03/06 00:46:24;;;;;;;22.30;14.70;;;;;;;;;;5053433;28;20091;-63
2022/03/06 00:48:51;;;;;;;19.52;14.77;;;;;;;;;;5053405;28;20037;-63
2022/03/06 00:51:17;;;;;;;22.00;15.52;;;;;;;;;;5053849;28;20044;-61
2022/03/06 00:53:44;;;;;;;22.00;15.25;;;;;;;;;;5052636;28;20052;-62
2022/03/06 00:56:10;;;;;;;20.88;15.35;;;;;;;;;;5054371;28;20047;-63
2022/03/06 00:58:37;;;;;;;21.25;15.60;;;;;;;;;;5052207;28;20040;-62
2022/03/06 01:01:04;;;;;;;23.52;16.20;;;;;;;;;;5036359;28;20052;-65
2022/03/06 01:03:30;;;;;;;21.60;15.30;;;;;;;;;;5054589;28;20123;-62
2022/03/06 01:05:56;;;;;;;24.17;16.67;;;;;;;;;;5054555;28;20081;-64
2022/03/06 01:08:23;;;;;;;21.17;15.32;;;;;;;;;;5052791;28;20055;-65
2022/03/06 01:10:50;;;;;;;23.20;17.10;;;;;;;;;;5053818;28;20132;-64
2022/03/06 01:13:17;;;;;;;24.92;16.42;;;;;;;;;;5052488;28;20037;-63
2022/03/06 01:15:43;;;;;;;24.15;15.30;;;;;;;;;;5054415;28;20049;-63
2022/03/06 01:18:09;;;;;;;25.08;16.30;;;;;;;;;;5053300;28;20045;-64
2022/03/06 01:20:37;;;;;;;20.35;16.02;;;;;;;;;;5052614;28;20037;-61
2022/03/06 01:23:03;;;;;;;24.75;18.13;;;;;;;;;;5052914;28;20516;-63
2022/03/06 01:25:29;;;;;;;22.73;16.80;;;;;;;;;;5053666;28;20044;-64
2022/03/06 01:27:55;;;;;;;22.27;15.77;;;;;;;;;;5035587;28;20534;-65
2022/03/06 01:30:22;;;;;;;21.67;15.70;;;;;;;;;;5052664;28;20551;-64
2022/03/06 01:32:52;;;;;;;23.00;15.93;;;;;;;;;;5034524;28;20413;-64
2022/03/06 01:35:19;;;;;;;20.20;14.88;;;;;;;;;;5032380;28;20060;-63
2022/03/06 01:37:45;;;;;;;25.52;14.98;;;;;;;;;;5052347;28;20512;-64
2022/03/06 01:40:11;;;;;;;22.63;16.38;;;;;;;;;;5052783;28;20124;-63
2022/03/06 01:42:42;;;;;;;23.67;16.27;;;;;;;;;;5052607;28;20045;-63
2022/03/06 01:45:08;;;;;;;23.08;15.88;;;;;;;;;;5052594;28;20033;-64
2022/03/06 01:47:41;;;;;;;21.08;14.40;;;;;;;;;;5052797;28;20486;-65
2022/03/06 01:50:08;;;;;;;22.77;15.10;;;;;;;;;;5052072;28;20041;-61
2022/03/06 01:52:34;;;;;;;21.05;15.27;;;;;;;;;;5051886;28;20040;-63
2022/03/06 01:55:01;;;;;;;20.77;14.30;;;;;;;;;;5051557;28;20040;-63
2022/03/06 01:57:27;;;;;;;23.80;15.88;;;;;;;;;;5049672;28;20040;-63
2022/03/06 01:59:53;;;;;;;21.98;15.60;;;;;;;;;;5049032;28;20044;-63
2022/03/06 02:02:20;;;;;;;21.48;15.75;;;;;;;;;;5051576;28;20167;-62
2022/03/06 02:04:46;;;;;;;23.23;15.02;;;;;;;;;;5052343;28;20116;-63
2022/03/06 02:07:12;;;;;;;20.50;15.07;;;;;;;;;;5052821;28;20037;-63
2022/03/06 02:09:38;;;;;;;22.35;15.48;;;;;;;;;;5051338;28;20040;-64
2022/03/06 02:12:24;;;;;;;25.42;16.33;;;;;;;;;;5051358;28;20414;-63
2022/03/06 02:14:50;;;;;;;24.65;15.75;;;;;;;;;;5051417;28;20041;-63
2022/03/06 02:17:17;;;;;;;22.70;16.45;;;;;;;;;;5044143;28;20392;-64
2022/03/06 02:19:52;;;;;;;20.77;15.30;;;;;;;;;;5051801;28;20045;-63
2022/03/06 02:22:19;;;;;;;22.00;15.10;;;;;;;;;;5051708;28;20501;-63
2022/03/06 02:24:45;;;;;;;24.20;15.45;;;;;;;;;;5051102;28;20122;-62
2022/03/06 02:27:11;;;;;;;25.00;16.00;;;;;;;;;;5044008;28;20506;-63
2022/03/06 02:29:41;;;;;;;21.85;14.55;;;;;;;;;;5048956;28;20033;-64
2022/03/06 02:32:09;;;;;;;22.70;16.02;;;;;;;;;;5051920;28;20048;-63
2022/03/06 02:34:36;;;;;;;23.98;15.98;;;;;;;;;;5050780;28;20055;-63
2022/03/06 02:37:03;;;;;;;27.92;18.08;;;;;;;;;;5051008;28;20508;-63
2022/03/06 02:39:29;;;;;;;23.35;15.48;;;;;;;;;;5044409;28;20490;-64
2022/03/06 02:41:56;;;;;;;22.77;16.17;;;;;;;;;;5050732;28;20040;-63
2022/03/06 02:44:22;;;;;;;22.58;14.80;;;;;;;;;;5051048;28;20040;-64
2022/03/06 02:46:48;;;;;;;25.55;16.90;;;;;;;;;;5050596;28;20048;-64
2022/03/06 02:49:17;;;;;;;22.98;14.93;;;;;;;;;;5035323;28;20448;-64
2022/03/06 02:51:44;;;;;;;24.85;16.17;;;;;;;;;;5051694;28;20044;-64
2022/03/06 02:54:10;;;;;;;24.98;16.02;;;;;;;;;;5051139;28;20059;-63
2022/03/06 02:56:37;;;;;;;24.13;16.25;;;;;;;;;;5050990;28;20040;-63
2022/03/06 02:59:04;;;;;;;23.80;15.63;;;;;;;;;;5033350;28;20056;-64
2022/03/06 03:01:30;;;;;;;22.45;16.15;;;;;;;;;;5050503;28;20494;-63
2022/03/06 03:03:57;;;;;;;21.05;14.60;;;;;;;;;;5051399;28;20037;-63
2022/03/06 03:06:23;;;;;;;25.15;15.68;;;;;;;;;;5050472;28;20068;-63
2022/03/06 03:08:49;;;;;;;22.05;14.65;;;;;;;;;;5051863;28;20390;-63
2022/03/06 03:11:15;;;;;;;21.55;15.50;;;;;;;;;;5043899;28;20045;-63
2022/03/06 03:13:41;;;;;;;19.92;14.65;;;;;;;;;;5049448;28;20112;-64
2022/03/06 03:16:08;;;;;;;21.17;14.32;;;;;;;;;;5051307;28;20079;-64
2022/03/06 03:18:34;;;;;;;21.50;14.38;;;;;;;;;;5042313;28;20037;-63
2022/03/06 03:21:00;;;;;;;18.98;13.80;;;;;;;;;;5051097;28;20128;-63
2022/03/06 03:23:27;;;;;;;18.90;13.65;;;;;;;;;;5051023;28;20052;-62
2022/03/06 03:25:53;;;;;;;20.90;14.45;;;;;;;;;;5049326;28;20077;-62
2022/03/06 03:28:19;;;;;;;20.52;14.68;;;;;;;;;;5051109;28;20478;-61
2022/03/06 03:30:45;;;;;;;21.40;14.57;;;;;;;;;;5045321;28;20040;-61
2022/03/06 03:33:11;;;;;;;21.67;14.10;;;;;;;;;;5051705;28;20059;-66
2022/03/06 03:35:38;;;;;;;20.05;13.30;;;;;;;;;;5050862;28;20037;-62
2022/03/06 03:38:04;;;;;;;20.73;15.13;;;;;;;;;;5044603;28;20041;-62
2022/03/06 03:40:30;;;;;;;17.92;13.70;;;;;;;;;;5049709;28;20033;-64
2022/03/06 03:42:56;;;;;;;20.92;13.70;;;;;;;;;;5041814;28;20047;-63
2022/03/06 03:45:22;;;;;;;19.05;14.10;;;;;;;;;;5034004;28;20045;-60
2022/03/06 03:47:48;;;;;;;20.13;12.75;;;;;;;;;;5033606;28;20040;-62
2022/03/06 03:50:14;;;;;;;17.55;12.75;;;;;;;;;;5050843;28;20127;-63
2022/03/06 03:52:40;;;;;;;21.90;14.32;;;;;;;;;;5049506;28;20033;-63
2022/03/06 03:55:07;;;;;;;18.98;12.85;;;;;;;;;;5051399;28;20033;-62
2022/03/06 03:57:33;;;;;;;18.75;13.52;;;;;;;;;;5053302;28;20043;-66
2022/03/06 03:59:59;;;;;;;21.75;14.48;;;;;;;;;;5054339;28;20039;-64
2022/03/06 04:02:25;;;;;;;18.15;14.05;;;;;;;;;;5054555;28;20048;-63
2022/03/06 04:04:52;;;;;;;19.45;13.80;;;;;;;;;;5064348;23;20048;-62
2022/03/06 04:07:18;;;;;;;18.08;13.57;;;;;;;;;;5045503;28;20055;-64
2022/03/06 04:09:44;;;;;;;18.27;12.68;;;;;;;;;;5048758;28;20041;-64
2022/03/06 04:12:10;;;;;;;20.13;13.15;;;;;;;;;;5053041;28;20386;-64
2022/03/06 04:14:36;;;;;;;19.98;14.35;;;;;;;;;;5050261;28;20124;-64
2022/03/06 04:17:03;;;;;;;14.63;11.45;;;;;;;;;;5017037;28;20045;-65
2022/03/06 04:19:29;;;;;;;16.98;12.25;;;;;;;;;;5041747;28;20045;-62
2022/03/06 04:21:55;;;;;;;16.67;12.18;;;;;;;;;;5041005;28;20040;-62
2022/03/06 04:24:21;;;;;;;16.63;12.07;;;;;;;;;;5045226;28;20044;-62
2022/03/06 04:26:47;;;;;;;16.35;11.98;;;;;;;;;;5037838;28;20443;-63
2022/03/06 04:29:13;;;;;;;16.52;11.88;;;;;;;;;;5034183;28;20084;-62
2022/03/06 04:31:39;;;;;;;13.80;11.43;;;;;;;;;;5035225;28;20041;-64
2022/03/06 04:34:05;;;;;;;16.02;12.38;;;;;;;;;;5034400;28;20091;-64
2022/03/06 04:36:32;;;;;;;14.13;11.40;;;;;;;;;;5040305;28;20049;-65
2022/03/06 04:38:58;;;;;;;17.58;12.52;;;;;;;;;;5042007;28;20128;-64
2022/03/06 04:41:24;;;;;;;15.75;12.18;;;;;;;;;;5041890;28;20375;-64
2022/03/06 04:43:52;;;;;;;17.30;13.00;;;;;;;;;;5042313;28;20041;-64
2022/03/06 04:46:18;;;;;;;14.48;12.05;;;;;;;;;;5040663;28;20041;-64
2022/03/06 04:48:44;;;;;;;15.02;11.60;;;;;;;;;;5036748;28;20441;-63
2022/03/06 04:51:11;;;;;;;19.27;13.52;;;;;;;;;;5035553;28;20394;-64
2022/03/06 04:53:37;;;;;;;16.10;12.02;;;;;;;;;;5042299;28;20390;-64
2022/03/06 04:56:03;;;;;;;17.92;13.07;;;;;;;;;;5045352;28;20033;-63
2022/03/06 04:58:30;;;;;;;16.27;12.45;;;;;;;;;;5047488;28;20446;-63
2022/03/06 05:00:56;;;;;;;17.17;11.95;;;;;;;;;;5041529;28;20447;-62
2022/03/06 05:03:22;;;;;;;15.98;13.35;;;;;;;;;;5047800;28;20071;-62
2022/03/06 05:05:51;;;;;;;16.30;12.10;;;;;;;;;;5044314;28;20041;-62
2022/03/06 05:08:17;;;;;;;16.85;14.00;;;;;;;;;;5026391;28;20037;-61
2022/03/06 05:10:43;;;;;;;17.27;13.07;;;;;;;;;;5046806;28;20486;-63
2022/03/06 05:13:09;;;;;;;17.33;13.80;;;;;;;;;;5032959;28;20033;-63
2022/03/06 05:15:36;;;;;;;16.42;12.35;;;;;;;;;;5041179;28;20029;-62
2022/03/06 05:18:03;;;;;;;18.40;13.43;;;;;;;;;;5045690;28;20042;-63
2022/03/06 05:22:57;;;;;;;17.80;13.15;;;;;;;;;;5050455;28;20207;-63
2022/03/06 05:25:23;;;;;;;15.10;13.05;;;;;;;;;;5053353;28;20037;-63
2022/03/06 05:27:49;;;;;;;16.58;13.45;;;;;;;;;;5053197;28;20083;-62
2022/03/06 05:30:15;;;;;;;14.52;12.57;;;;;;;;;;5044937;28;20045;-64
2022/03/06 05:32:42;;;;;;;16.00;12.80;;;;;;;;;;5052766;28;20033;-65
2022/03/06 05:35:10;;;;;;;16.55;13.25;;;;;;;;;;5053052;28;20095;-63
2022/03/06 05:37:36;;;;;;;12.98;11.60;;;;;;;;;;5044924;28;20481;-63
2022/03/06 05:40:03;;;;;;;13.65;11.90;;;;;;;;;;5046856;28;20047;-63
2022/03/06 05:42:29;;;;;;;14.55;12.20;;;;;;;;;;5052721;28;20477;-64
2022/03/06 05:44:55;;;;;;;14.30;11.48;;;;;;;;;;5052962;28;20401;-64
2022/03/06 05:47:21;;;;;;;12.20;10.90;;;;;;;;;;5052056;28;20486;-64
2022/03/06 05:49:47;;;;;;;18.38;11.63;;;;;;;;;;5052429;28;20049;-65
2022/03/06 05:52:13;;;;;;;11.85;9.80;;;;;;;;;;5052227;28;20033;-64
2022/03/06 05:54:39;;;;;;;15.80;12.27;;;;;;;;;;5052070;28;20037;-63
2022/03/06 05:57:06;;;;;;;15.00;13.18;;;;;;;;;;5052296;28;20115;-63
2022/03/06 05:59:32;;;;;;;15.80;11.98;;;;;;;;;;5053099;28;20127;-63
2022/03/06 06:01:58;;;;;;;15.95;11.98;;;;;;;;;;5051631;28;20107;-63
2022/03/06 06:04:25;;;;;;;13.15;10.80;;;;;;;;;;5048095;28;20037;-62
2022/03/06 06:06:51;;;;;;;13.25;10.93;;;;;;;;;;5050934;28;20397;-62
2022/03/06 06:09:17;;;;;;;12.48;11.05;;;;;;;;;;5045444;28;20421;-64
2022/03/06 06:11:43;;;;;;;11.23;10.13;;;;;;;;;;5042414;28;20406;-64
2022/03/06 06:14:10;;;;;;;16.45;11.57;;;;;;;;;;5048974;28;20049;-63
2022/03/06 06:16:36;;;;;;;13.98;10.65;;;;;;;;;;5050217;28;20136;-61
2022/03/06 06:19:02;;;;;;;12.30;11.00;;;;;;;;;;5040198;28;20037;-61
2022/03/06 06:21:28;;;;;;;15.20;11.52;;;;;;;;;;5053792;28;20124;-61
2022/03/06 06:23:54;;;;;;;12.13;10.70;;;;;;;;;;5047507;28;20449;-63
2022/03/06 06:26:23;;;;;;;14.30;10.48;;;;;;;;;;5048314;28;20048;-64
2022/03/06 06:28:52;;;;;;;15.88;10.90;;;;;;;;;;5051744;28;20086;-62
2022/03/06 06:31:19;;;;;;;15.30;11.07;;;;;;;;;;5051109;28;20409;-64
2022/03/06 06:33:45;;;;;;;11.60;10.43;;;;;;;;;;5051400;28;20104;-63
2022/03/06 06:36:11;;;;;;;12.85;9.88;;;;;;;;;;5050963;28;20092;-63
2022/03/06 06:38:37;;;;;;;11.38;10.18;;;;;;;;;;5050975;28;20041;-63
2022/03/06 06:41:03;;;;;;;14.65;10.50;;;;;;;;;;5051037;28;20041;-63
2022/03/06 06:43:29;;;;;;;11.90;9.77;;;;;;;;;;5050405;28;20044;-62
2022/03/06 06:45:56;;;;;;;11.85;9.20;;;;;;;;;;5034035;28;20488;-63
2022/03/06 06:48:22;;;;;;;11.77;9.35;;;;;;;;;;5050959;28;20068;-62
2022/03/06 06:50:48;;;;;;;9.77;8.77;;;;;;;;;;5051503;28;20399;-62
2022/03/06 06:53:14;;;;;;;10.18;7.53;;;;;;;;;;5051221;28;20045;-62
2022/03/06 06:55:40;;;;;;;9.77;7.70;;;;;;;;;;5051173;28;20567;-64
2022/03/06 06:58:06;;;;;;;8.93;7.43;;;;;;;;;;5050748;28;20493;-64
2022/03/06 07:00:33;;;;;;;11.82;7.55;;;;;;;;;;5042802;28;20044;-62
2022/03/06 07:02:59;;;;;;;7.65;6.68;;;;;;;;;;5047712;28;20037;-62
2022/03/06 07:05:25;;;;;;;8.90;7.20;;;;;;;;;;5044686;28;20042;-62
2022/03/06 07:07:53;;;;;;;9.60;7.68;;;;;;;;;;5045609;28;20084;-63
2022/03/06 07:10:19;;;;;;;7.93;6.53;;;;;;;;;;5046809;28;20402;-62
2022/03/06 07:12:46;;;;;;;8.25;6.57;;;;;;;;;;5047183;28;20120;-61
2022/03/06 07:15:12;;;;;;;8.48;6.18;;;;;;;;;;5038196;28;20037;-62
2022/03/06 07:17:38;;;;;;;7.93;6.10;;;;;;;;;;5038879;28;20504;-62
2022/03/06 07:20:05;;;;;;;7.63;6.07;;;;;;;;;;5042969;28;20037;-62
2022/03/06 07:22:31;;;;;;;7.57;6.10;;;;;;;;;;5040643;28;20041;-62
2022/03/06 07:24:57;;;;;;;7.18;6.35;;;;;;;;;;5048803;28;20037;-64
2022/03/06 07:27:23;;;;;;;8.35;6.03;;;;;;;;;;5049000;28;20056;-63
2022/03/06 07:29:49;;;;;;;7.05;6.10;;;;;;;;;;5047227;28;20095;-62
2022/03/06 07:32:16;;;;;;;8.45;6.60;;;;;;;;;;5048571;28;20041;-64
2022/03/06 07:34:42;;;;;;;10.43;6.28;;;;;;;;;;5051340;28;20112;-62
2022/03/06 07:37:08;;;;;;;7.53;6.13;;;;;;;;;;5049270;28;20041;-63
2022/03/06 07:39:34;;;;;;;10.52;6.13;;;;;;;;;;5049573;28;20033;-63
2022/03/06 07:42:01;;;;;;;7.20;6.10;;;;;;;;;;5049951;28;20120;-63
2022/03/06 07:44:27;;;;;;;9.18;6.25;;;;;;;;;;5050733;28;20048;-64
2022/03/06 07:46:53;;;;;;;6.55;5.80;;;;;;;;;;5048018;28;20501;-64
2022/03/06 07:49:19;;;;;;;7.07;6.10;;;;;;;;;;5051195;28;20083;-64
2022/03/06 07:51:45;;;;;;;8.65;6.57;;;;;;;;;;5050617;28;20059;-63
2022/03/06 07:54:14;;;;;;;8.77;5.97;;;;;;;;;;5053653;28;20036;-63
2022/03/06 07:56:45;;;;;;;6.88;6.03;;;;;;;;;;5053787;28;20044;-64
2022/03/06 07:59:11;;;;;;;7.50;5.63;;;;;;;;;;5053671;28;20386;-62
2022/03/06 08:01:37;;;;;;;9.25;5.75;;;;;;;;;;5053885;28;20103;-64
2022/03/06 08:04:04;;;;;;;6.60;5.57;;;;;;;;;;5054372;28;20045;-63
2022/03/06 08:06:30;;;;;;;7.93;6.07;;;;;;;;;;5054366;28;20060;-62
2022/03/06 08:08:56;;;;;;;7.85;6.10;;;;;;;;;;5054830;28;20379;-62
2022/03/06 08:11:22;;;;;;;8.93;5.90;;;;;;;;;;5052695;28;20037;-63
2022/03/06 08:13:48;;;;;;;6.80;5.53;;;;;;;;;;5053868;28;20490;-62
2022/03/06 08:16:14;;;;;;;7.00;5.05;;;;;;;;;;5052725;28;20036;-62
2022/03/06 08:18:40;;;;;;;6.30;5.40;;;;;;;;;;5047902;28;20116;-63
2022/03/06 08:21:06;;;;;;;5.60;4.68;;;;;;;;;;5053068;28;20482;-63
2022/03/06 08:23:32;;;;;;;5.22;4.65;;;;;;;;;;5046826;28;20078;-63
2022/03/06 08:25:58;;;;;;;5.95;5.22;;;;;;;;;;5044965;28;20119;-63
2022/03/06 08:28:24;;;;;;;5.55;4.95;;;;;;;;;;5047485;28;20795;-62
2022/03/06 08:30:50;;;;;;;6.85;4.72;;;;;;;;;;5048647;28;20167;-65
2022/03/06 08:33:17;;;;;;;5.43;4.47;;;;;;;;;;5045498;28;20033;-66
2022/03/06 08:35:43;;;;;;;5.22;4.35;;;;;;;;;;5049345;28;20033;-64
2022/03/06 08:38:09;;;;;;;5.88;4.00;;;;;;;;;;5044820;28;20157;-64
2022/03/06 08:40:35;;;;;;;5.80;4.60;;;;;;;;;;5043089;28;20033;-65
2022/03/06 08:43:01;;;;;;;6.40;3.80;;;;;;;;;;5043591;28;20030;-66
2022/03/06 08:45:31;;;;;;;5.43;3.90;;;;;;;;;;5045755;28;20038;-64
2022/03/06 08:47:59;;;;;;;4.07;3.67;;;;;;;;;;5045962;28;20059;-61
2022/03/06 08:50:25;;;;;;;5.78;4.10;;;;;;;;;;5042841;28;20041;-62
2022/03/06 08:52:51;;;;;;;4.43;3.80;;;;;;;;;;5047251;28;20091;-62
2022/03/06 08:55:17;;;;;;;4.75;3.85;;;;;;;;;;5048006;28;20069;-62
2022/03/06 08:57:43;;;;;;;3.83;3.40;;;;;;;;;;5043585;28;20049;-64
2022/03/06 09:00:09;;;;;;;4.55;3.50;;;;;;;;;;5049015;28;20048;-62
2022/03/06 09:02:36;;;;;;;5.00;3.83;;;;;;;;;;5040322;28;20033;-62
2022/03/06 09:05:02;;;;;;;3.75;3.45;;;;;;;;;;5049495;28;20091;-63
2022/03/06 09:07:28;;;;;;;3.50;3.20;;;;;;;;;;5045064;28;20037;-63
2022/03/06 09:09:54;;;;;;;3.58;3.20;;;;;;;;;;5045044;28;20060;-63
2022/03/06 09:12:26;;;;;;;4.57;3.60;;;;;;;;;;5047967;28;20486;-63
2022/03/06 09:14:53;;;;;;;4.07;3.25;;;;;;;;;;5049995;28;20037;-64
2022/03/06 09:17:19;;;;;;;5.00;3.85;;;;;;;;;;5043328;28;20044;-63
2022/03/06 09:19:46;;;;;;;4.68;3.53;;;;;;;;;;5041909;28;20140;-63
2022/03/06 09:22:12;;;;;;;3.97;3.53;;;;;;;;;;5037851;28;20417;-63
2022/03/06 09:24:38;;;;;;;4.15;3.40;;;;;;;;;;5048022;28;20029;-62
2022/03/06 09:27:04;;;;;;;3.90;3.50;;;;;;;;;;5050605;28;20039;-62
2022/03/06 09:29:30;;;;;;;4.55;3.70;;;;;;;;;;5048667;28;20045;-62
2022/03/06 09:31:56;;;;;;;3.80;3.40;;;;;;;;;;5038919;28;20030;-62
2022/03/06 09:34:23;;;;;;;4.30;3.38;;;;;;;;;;5049222;28;20390;-62
2022/03/06 09:36:49;;;;;;;5.43;3.85;;;;;;;;;;5046320;28;20041;-64
2022/03/06 09:39:15;;;;;;;5.22;3.72;;;;;;;;;;5044887;28;20040;-66
2022/03/06 09:41:42;;;;;;;5.30;3.50;;;;;;;;;;5043483;28;20045;-63
2022/03/06 09:44:09;;;;;;;3.78;3.38;;;;;;;;;;5036075;28;20494;-64
2022/03/06 09:46:36;;;;;;;4.55;3.70;;;;;;;;;;5045958;28;20041;-63
2022/03/06 09:49:03;;;;;;;4.22;3.17;;;;;;;;;;5046660;28;20048;-65
2022/03/06 09:51:36;;;;;;;4.72;3.47;;;;;;;;;;5049980;28;20067;-64
2022/03/06 09:54:02;;;;;;;5.00;3.88;;;;;;;;;;5047788;28;20546;-63
2022/03/06 09:56:28;;;;;;;3.67;3.30;;;;;;;;;;5045456;28;20066;-63
2022/03/06 09:58:54;;;;;;;4.13;3.60;;;;;;;;;;5041377;28;20083;-62
2022/03/06 10:01:20;;;;;;;4.72;3.65;;;;;;;;;;5051533;28;20139;-65
2022/03/06 10:03:46;;;;;;;3.90;3.55;;;;;;;;;;5050164;28;20315;-63
2022/03/06 10:06:12;;;;;;;4.55;3.67;;;;;;;;;;5051288;28;20049;-63
2022/03/06 10:08:38;;;;;;;5.13;3.72;;;;;;;;;;5052288;28;20044;-63
2022/03/06 10:11:06;;;;;;;5.15;3.70;;;;;;;;;;5050264;28;20033;-63
2022/03/06 10:13:37;;;;;;;3.92;3.50;;;;;;;;;;5051755;28;20075;-65
2022/03/06 10:16:07;;;;;;;3.63;3.40;;;;;;;;;;5045714;28;20482;-65
2022/03/06 10:18:35;;;;;;;5.68;3.78;;;;;;;;;;5042873;28;20035;-64
2022/03/06 10:21:11;;;;;;;5.75;4.00;;;;;;;;;;5043632;28;20576;-63
2022/03/06 10:23:37;;;;;;;3.85;3.50;;;;;;;;;;5050097;28;20037;-65
2022/03/06 10:26:04;;;;;;;4.47;3.78;;;;;;;;;;5049240;28;20045;-65
2022/03/06 10:28:30;;;;;;;3.95;3.25;;;;;;;;;;5050557;28;20041;-66
2022/03/06 10:31:03;;;;;;;4.45;3.95;;;;;;;;;;5046894;28;20055;-64
2022/03/06 10:33:29;;;;;;;3.50;3.20;;;;;;;;;;5046212;28;20112;-63
2022/03/06 10:35:58;;;;;;;3.60;3.13;;;;;;;;;;5044698;28;20041;-64
2022/03/06 10:38:27;;;;;;;3.40;3.10;;;;;;;;;;5044821;28;20504;-64
2022/03/06 10:40:58;;;;;;;4.28;3.65;;;;;;;;;;5042651;28;20029;-64
2022/03/06 10:43:25;;;;;;;3.80;3.50;;;;;;;;;;5048221;28;20043;-64
2022/03/06 10:45:52;;;;;;;4.25;3.63;;;;;;;;;;5041496;28;20521;-64
2022/03/06 10:48:19;;;;;;;4.63;4.15;;;;;;;;;;5042813;28;20040;-64
2022/03/06 10:50:45;;;;;;;3.85;3.33;;;;;;;;;;5043531;28;20037;-64
2022/03/06 10:53:37;;;;;;;3.80;3.50;;;;;;;;;;5043063;28;20033;-64
2022/03/06 10:56:14;;;;;;;3.90;3.60;;;;;;;;;;5038521;28;20139;-65
2022/03/06 10:58:41;;;;;;;4.00;3.60;;;;;;;;;;5044255;28;20433;-64
2022/03/06 11:01:07;;;;;;;3.65;3.25;;;;;;;;;;5045944;28;20047;-65
2022/03/06 11:03:35;;;;;;;4.35;2.97;;;;;;;;;;5044181;28;20072;-64
2022/03/06 11:06:02;;;;;;;3.50;3.20;;;;;;;;;;5046145;28;20044;-63
2022/03/06 11:08:28;;;;;;;3.55;3.10;;;;;;;;;;5042843;28;20559;-63
2022/03/06 11:10:54;;;;;;;3.28;2.78;;;;;;;;;;5045653;28;20040;-63
2022/03/06 11:13:21;;;;;;;4.32;2.85;;;;;;;;;;5043745;28;20113;-64
2022/03/06 11:15:47;;;;;;;3.30;3.00;;;;;;;;;;5048799;28;20069;-63
2022/03/06 11:18:13;;;;;;;3.47;2.55;;;;;;;;;;5049319;28;20044;-63
2022/03/06 11:20:40;;;;;;;3.28;2.97;;;;;;;;;;5051001;28;20116;-66
2022/03/06 11:23:06;;;;;;;3.38;2.65;;;;;;;;;;5043851;28;20043;-66
2022/03/06 11:25:32;;;;;;;2.83;2.40;;;;;;;;;;5051525;28;20513;-65
2022/03/06 11:28:11;;;;;;;3.10;2.10;;;;;;;;;;5050643;28;20033;-63
2022/03/06 11:30:37;;;;;;;3.97;2.60;;;;;;;;;;5030995;28;20076;-63
2022/03/06 11:33:07;;;;;;;3.03;2.72;;;;;;;;;;5049563;28;20033;-64
2022/03/06 11:35:35;;;;;;;4.55;2.47;;;;;;;;;;5049407;28;20076;-65
2022/03/06 11:38:02;;;;;;;3.10;2.60;;;;;;;;;;5048233;28;20064;-64
2022/03/06 11:40:33;;;;;;;3.25;2.95;;;;;;;;;;5045808;28;20041;-67
2022/03/06 11:43:00;;;;;;;3.70;2.80;;;;;;;;;;5039479;28;20038;-65
2022/03/06 11:45:44;;;;;;;3.03;2.70;;;;;;;;;;5038736;28;20041;-65
2022/03/06 11:48:31;;;;;;;2.95;2.30;;;;;;;;;;5048552;28;20037;-65
2022/03/06 11:51:29;;;;;;;13.18;3.00;;;;;;;;;;5013254;28;20514;-64
2022/03/06 11:54:07;;;;;;;3.10;2.45;;;;;;;;;;5013005;28;20072;-66
2022/03/06 11:56:33;;;;;;;2.35;2.15;;;;;;;;;;5036917;28;20041;-66
2022/03/06 11:59:04;;;;;;;2.55;2.35;;;;;;;;;;5036045;28;20047;-65
2022/03/06 12:01:34;;;;;;;2.83;2.50;;;;;;;;;;5040332;28;20140;-65
2022/03/06 12:04:01;;;;;;;2.75;2.50;;;;;;;;;;5044794;28;20379;-65
2022/03/06 12:06:28;;;;;;;3.22;2.92;;;;;;;;;;5038115;28;20096;-65
2022/03/06 12:08:55;;;;;;;3.75;2.60;;;;;;;;;;5049701;28;20472;-65
2022/03/06 12:11:21;;;;;;;2.38;2.17;;;;;;;;;;5049943;28;20424;-64
2022/03/06 12:13:50;;;;;;;4.15;2.60;;;;;;;;;;5049502;28;20041;-64
2022/03/06 12:16:17;;;;;;;4.25;2.80;;;;;;;;;;5049843;28;20052;-65
2022/03/06 12:19:01;;;;;;;3.35;2.40;;;;;;;;;;5050999;28;20056;-65
2022/03/06 12:21:36;;;;;;;3.65;2.42;;;;;;;;;;5053440;28;20488;-64
2022/03/06 12:24:12;;;;;;;3.08;2.72;;;;;;;;;;5053506;28;20611;-63
2022/03/06 12:26:45;;;;;;;4.13;3.00;;;;;;;;;;5053497;28;20112;-66
2022/03/06 12:29:31;;;;;;;2.72;2.45;;;;;;;;;;5053914;28;20060;-64
2022/03/06 12:32:17;;;;;;;3.97;2.78;;;;;;;;;;5049794;28;20049;-64
2022/03/06 12:34:43;;;;;;;3.08;2.75;;;;;;;;;;5045963;28;20557;-64
2022/03/06 12:37:09;;;;;;;5.57;2.97;;;;;;;;;;5047881;28;20120;-65
2022/03/06 12:39:35;;;;;;;3.97;2.60;;;;;;;;;;5040423;28;20456;-65
2022/03/06 12:42:02;;;;;;;4.22;2.90;;;;;;;;;;5048823;28;20095;-66
2022/03/06 12:44:30;;;;;;;2.90;2.60;;;;;;;;;;5045802;28;20098;-66
2022/03/06 12:46:57;;;;;;;3.50;2.60;;;;;;;;;;5043216;28;20128;-65
2022/03/06 12:49:23;;;;;;;4.63;2.67;;;;;;;;;;5045486;28;20041;-64
2022/03/06 12:51:51;;;;;;;2.92;2.63;;;;;;;;;;5046486;28;20501;-65
2022/03/06 12:54:21;;;;;;;3.42;2.30;;;;;;;;;;5042204;28;20112;-65
2022/03/06 12:56:47;;;;;;;3.75;2.95;;;;;;;;;;5051405;28;20052;-65
2022/03/06 12:59:17;;;;;;;4.20;2.63;;;;;;;;;;5047906;28;20033;-65
2022/03/06 13:01:45;;;;;;;2.90;2.60;;;;;;;;;;5049149;28;20068;-67
2022/03/06 13:04:11;;;;;;;3.33;2.63;;;;;;;;;;5049662;28;20512;-63
2022/03/06 13:06:39;;;;;;;4.22;2.70;;;;;;;;;;5048612;28;20147;-66
2022/03/06 13:09:05;;;;;;;4.85;2.58;;;;;;;;;;5048590;28;20469;-63
2022/03/06 13:11:38;;;;;;;3.80;3.17;;;;;;;;;;5052040;28;20179;-65
2022/03/06 13:14:06;;;;;;;5.75;3.10;;;;;;;;;;5045864;28;20083;-65
2022/03/06 13:16:32;;;;;;;4.28;3.13;;;;;;;;;;5052598;28;20468;-65
2022/03/06 13:19:02;;;;;;;3.30;3.00;;;;;;;;;;5052114;28;20493;-66
2022/03/06 13:21:29;;;;;;;5.03;2.95;;;;;;;;;;5052083;28;20350;-65
2022/03/06 13:23:59;;;;;;;4.88;3.10;;;;;;;;;;5044166;28;20048;-66
2022/03/06 13:26:34;;;;;;;4.35;2.95;;;;;;;;;;5047156;28;20030;-66
2022/03/06 13:29:01;;;;;;;3.10;2.80;;;;;;;;;;5044146;28;20136;-67
2022/03/06 13:31:27;;;;;;;3.22;2.92;;;;;;;;;;5042209;28;20037;-65
2022/03/06 13:34:21;;;;;;;4.70;3.35;;;;;;;;;;5044529;28;20094;-65
2022/03/06 13:36:47;;;;;;;4.05;2.80;;;;;;;;;;5043573;28;20124;-63
2022/03/06 13:39:15;;;;;;;4.35;3.15;;;;;;;;;;5050841;28;20045;-66
2022/03/06 13:41:52;;;;;;;4.35;2.90;;;;;;;;;;5041860;28;20110;-65
2022/03/06 13:44:19;;;;;;;3.63;3.10;;;;;;;;;;5044273;28;20040;-65
2022/03/06 13:46:45;;;;;;;3.75;2.90;;;;;;;;;;5045527;28;20034;-66
2022/03/06 13:49:12;;;;;;;3.53;3.20;;;;;;;;;;5045604;28;20045;-67
2022/03/06 13:51:39;;;;;;;3.58;2.83;;;;;;;;;;5048174;28;20037;-64
2022/03/06 13:54:06;;;;;;;3.22;2.83;;;;;;;;;;5041518;28;20041;-65
2022/03/06 13:56:37;;;;;;;3.33;2.95;;;;;;;;;;5050804;28;20048;-65
2022/03/06 13:59:05;;;;;;;4.03;2.90;;;;;;;;;;5043800;28;20071;-65
2022/03/06 14:01:31;;;;;;;3.50;3.20;;;;;;;;;;5042640;28;20124;-65
2022/03/06 14:03:59;;;;;;;3.63;3.13;;;;;;;;;;5043673;28;20462;-65
2022/03/06 14:06:45;;;;;;;3.20;2.75;;;;;;;;;;5045611;28;20040;-65
2022/03/06 14:09:21;;;;;;;3.58;3.13;;;;;;;;;;5042611;28;20041;-64
2022/03/06 14:11:47;;;;;;;4.00;3.30;;;;;;;;;;5048338;28;20067;-64
2022/03/06 14:14:13;;;;;;;4.55;3.15;;;;;;;;;;5047885;28;20095;-64
2022/03/06 14:16:39;;;;;;;3.15;2.85;;;;;;;;;;5043925;28;20059;-64
2022/03/06 14:19:07;;;;;;;3.13;2.83;;;;;;;;;;5048370;28;20048;-65
2022/03/06 14:21:38;;;;;;;4.50;3.10;;;;;;;;;;5036542;28;20053;-65
2022/03/06 14:24:08;;;;;;;3.78;3.25;;;;;;;;;;5044673;28;20052;-66
2022/03/06 14:26:35;;;;;;;3.35;2.80;;;;;;;;;;5046073;28;20032;-64
2022/03/06 14:29:04;;;;;;;3.53;3.20;;;;;;;;;;5042434;28;20042;-65
2022/03/06 14:31:30;;;;;;;4.72;3.65;;;;;;;;;;5042273;28;20410;-63
2022/03/06 14:33:57;;;;;;;3.35;3.10;;;;;;;;;;5045817;28;20048;-64